sensor_id;sensor_type;location;lat;lon;timestamp;pressure;altitude;pressure_sealevel;temperature;humidity
52105;BME280;38103;42.776;23.112;2023-01-28T00:00:32;93287.63;;;-1.78;100.00
52105;BME280;38103;42.776;23.112;2023-01-28T00:02:57;93261.47;;;-1.92;100.00
52105;BME280;38103;42.776;23.112;2023-01-28T00:05:23;93298.28;;;-1.73;100.00
52105;BME280;38103;42.776;23.112;2023-01-28T00:07:49;93296.34;;;-1.79;100.00
52105;BME280;38103;42.776;23.112;2023-01-28T00:10:14;93286.91;;;-1.72;100.00
52105;BME280;38103;42.776;23.112;2023-01-28T00:12:40;93298.28;;;-1.73;100.00
52105;BME280;38103;42.776;23.112;2023-01-28T00:15:06;93299.25;;;-1.74;100.00
52105;BME280;38103;42.776;23.112;2023-01-28T00:17:32;93300.72;;;-1.80;100.00
52105;BME280;38103;42.776;23.112;2023-01-28T00:19:57;93284.91;;;-1.85;100.00
52105;BME280;38103;42.776;23.112;2023-01-28T00:22:23;93303.16;;;-1.78;100.00
52105;BME280;38103;42.776;23.112;2023-01-28T00:24:48;93298.47;;;-1.83;100.00
52105;BME280;38103;42.776;23.112;2023-01-28T00:27:14;93270.69;;;-2.13;100.00
52105;BME280;38103;42.776;23.112;2023-01-28T00:29:39;93284.56;;;-2.05;100.00
52105;BME280;38103;42.776;23.112;2023-01-28T00:32:05;93308.75;;;-1.89;100.00
52105;BME280;38103;42.776;23.112;2023-01-28T00:34:30;93305.81;;;-1.86;100.00
52105;BME280;38103;42.776;23.112;2023-01-28T00:36:56;93309.78;;;-1.99;100.00
52105;BME280;38103;42.776;23.112;2023-01-28T00:39:22;93315.25;;;-1.94;100.00
52105;BME280;38103;42.776;23.112;2023-01-28T00:41:48;93310.88;;;-1.93;100.00
52105;BME280;38103;42.776;23.112;2023-01-28T00:44:13;93319.09;;;-1.89;100.00
52105;BME280;38103;42.776;23.112;2023-01-28T00:46:39;93319.75;;;-1.87;100.00
52105;BME280;38103;42.776;23.112;2023-01-28T00:49:06;93316.53;;;-1.89;100.00
52105;BME280;38103;42.776;23.112;2023-01-28T00:51:31;93312.00;;;-1.96;100.00
52105;BME280;38103;42.776;23.112;2023-01-28T00:53:57;93322.75;;;-1.99;100.00
52105;BME280;38103;42.776;23.112;2023-01-28T00:56:22;93320.78;;;-1.97;100.00
52105;BME280;38103;42.776;23.112;2023-01-28T00:58:48;93320.31;;;-2.00;100.00
52105;BME280;38103;42.776;23.112;2023-01-28T01:01:25;93327.94;;;-1.99;100.00
52105;BME280;38103;42.776;23.112;2023-01-28T01:03:52;93332.63;;;-2.03;100.00
52105;BME280;38103;42.776;23.112;2023-01-28T01:06:32;93325.38;;;-2.07;100.00
52105;BME280;38103;42.776;23.112;2023-01-28T01:08:58;93327.13;;;-1.99;100.00
52105;BME280;38103;42.776;23.112;2023-01-28T01:11:23;93326.19;;;-2.07;100.00
52105;BME280;38103;42.776;23.112;2023-01-28T01:13:54;93328.25;;;-2.02;100.00
52105;BME280;38103;42.776;23.112;2023-01-28T01:16:22;93321.13;;;-2.00;100.00
52105;BME280;38103;42.776;23.112;2023-01-28T01:18:48;93302.00;;;-2.22;100.00
52105;BME280;38103;42.776;23.112;2023-01-28T01:21:16;93336.97;;;-1.95;100.00
52105;BME280;38103;42.776;23.112;2023-01-28T01:23:43;93315.66;;;-2.05;100.00
52105;BME280;38103;42.776;23.112;2023-01-28T01:26:09;93331.97;;;-1.96;100.00
52105;BME280;38103;42.776;23.112;2023-01-28T01:28:35;93336.66;;;-2.00;100.00
52105;BME280;38103;42.776;23.112;2023-01-28T01:31:05;93333.56;;;-1.95;100.00
52105;BME280;38103;42.776;23.112;2023-01-28T01:33:32;93335.41;;;-2.04;100.00
52105;BME280;38103;42.776;23.112;2023-01-28T01:35:58;93338.00;;;-2.04;100.00
52105;BME280;38103;42.776;23.112;2023-01-28T01:38:24;93340.69;;;-1.97;100.00
52105;BME280;38103;42.776;23.112;2023-01-28T01:40:49;93317.78;;;-2.09;100.00
52105;BME280;38103;42.776;23.112;2023-01-28T01:43:20;93336.63;;;-1.92;100.00
52105;BME280;38103;42.776;23.112;2023-01-28T01:45:49;93336.91;;;-1.86;100.00
52105;BME280;38103;42.776;23.112;2023-01-28T01:50:53;93311.09;;;-2.03;100.00
52105;BME280;38103;42.776;23.112;2023-01-28T01:53:22;93336.09;;;-1.87;100.00
52105;BME280;38103;42.776;23.112;2023-01-28T01:55:49;93325.03;;;-2.04;100.00
52105;BME280;38103;42.776;23.112;2023-01-28T01:58:18;93287.97;;;-2.28;100.00
52105;BME280;38103;42.776;23.112;2023-01-28T02:00:46;93334.94;;;-2.08;100.00
52105;BME280;38103;42.776;23.112;2023-01-28T02:03:12;93343.56;;;-1.92;100.00
52105;BME280;38103;42.776;23.112;2023-01-28T02:05:40;93343.09;;;-1.96;100.00
52105;BME280;38103;42.776;23.112;2023-01-28T02:08:05;93345.06;;;-1.98;100.00
52105;BME280;38103;42.776;23.112;2023-01-28T02:11:04;93346.69;;;-1.97;100.00
52105;BME280;38103;42.776;23.112;2023-01-28T02:13:38;93345.88;;;-1.97;100.00
52105;BME280;38103;42.776;23.112;2023-01-28T02:16:06;93329.13;;;-2.10;100.00
52105;BME280;38103;42.776;23.112;2023-01-28T02:18:32;93349.44;;;-1.98;100.00
52105;BME280;38103;42.776;23.112;2023-01-28T02:21:41;93352.03;;;-1.98;100.00
52105;BME280;38103;42.776;23.112;2023-01-28T02:27:29;93359.34;;;-2.02;100.00
52105;BME280;38103;42.776;23.112;2023-01-28T02:30:06;93361.94;;;-2.02;100.00
52105;BME280;38103;42.776;23.112;2023-01-28T02:38:08;93351.53;;;-1.94;100.00
52105;BME280;38103;42.776;23.112;2023-01-28T02:40:38;93358.66;;;-1.96;100.00
52105;BME280;38103;42.776;23.112;2023-01-28T02:46:53;93349.91;;;-1.95;100.00
52105;BME280;38103;42.776;23.112;2023-01-28T02:54:57;93351.88;;;-1.97;100.00
52105;BME280;38103;42.776;23.112;2023-01-28T03:00:03;93369.72;;;-2.02;100.00
52105;BME280;38103;42.776;23.112;2023-01-28T03:02:35;93360.59;;;-1.98;100.00
52105;BME280;38103;42.776;23.112;2023-01-28T03:05:04;93352.50;;;-1.95;100.00
52105;BME280;38103;42.776;23.112;2023-01-28T03:07:34;93337.56;;;-2.16;100.00
52105;BME280;38103;42.776;23.112;2023-01-28T03:10:02;93368.09;;;-2.03;100.00
52105;BME280;38103;42.776;23.112;2023-01-28T03:12:31;93364.97;;;-1.98;100.00
52105;BME280;38103;42.776;23.112;2023-01-28T03:15:17;93368.69;;;-1.93;100.00
52105;BME280;38103;42.776;23.112;2023-01-28T03:18:07;93369.72;;;-2.02;100.00
52105;BME280;38103;42.776;23.112;2023-01-28T03:29:52;93377.47;;;-2.02;100.00
52105;BME280;38103;42.776;23.112;2023-01-28T03:32:38;93365.56;;;-2.11;100.00
52105;BME280;38103;42.776;23.112;2023-01-28T03:35:27;93370.38;;;-2.08;100.00
52105;BME280;38103;42.776;23.112;2023-01-28T03:38:13;93368.44;;;-2.06;100.00
52105;BME280;38103;42.776;23.112;2023-01-28T03:40:55;93372.38;;;-2.19;100.00
52105;BME280;38103;42.776;23.112;2023-01-28T03:43:21;93369.84;;;-2.27;100.00
52105;BME280;38103;42.776;23.112;2023-01-28T03:45:47;93372.44;;;-2.27;100.00
52105;BME280;38103;42.776;23.112;2023-01-28T03:48:21;93367.47;;;-2.37;100.00
52105;BME280;38103;42.776;23.112;2023-01-28T03:50:46;93377.94;;;-2.30;100.00
52105;BME280;38103;42.776;23.112;2023-01-28T03:53:13;93382.00;;;-2.36;100.00
52105;BME280;38103;42.776;23.112;2023-01-28T03:55:40;93383.78;;;-2.37;100.00
52105;BME280;38103;42.776;23.112;2023-01-28T03:58:05;93382.50;;;-2.32;100.00
52105;BME280;38103;42.776;23.112;2023-01-28T04:00:31;93381.06;;;-2.35;100.00
52105;BME280;38103;42.776;23.112;2023-01-28T04:02:57;93388.97;;;-2.37;100.00
52105;BME280;38103;42.776;23.112;2023-01-28T04:05:23;93388.97;;;-2.37;100.00
52105;BME280;38103;42.776;23.112;2023-01-28T04:07:49;93389.66;;;-2.43;100.00
52105;BME280;38103;42.776;23.112;2023-01-28T04:10:18;93385.28;;;-2.42;100.00
52105;BME280;38103;42.776;23.112;2023-01-28T04:12:43;93393.22;;;-2.44;100.00
52105;BME280;38103;42.776;23.112;2023-01-28T04:15:09;93400.66;;;-2.41;100.00
52105;BME280;38103;42.776;23.112;2023-01-28T04:17:43;93403.59;;;-2.52;100.00
52105;BME280;38103;42.776;23.112;2023-01-28T04:20:09;93402.94;;;-2.54;100.00
52105;BME280;38103;42.776;23.112;2023-01-28T04:22:35;93404.91;;;-2.56;100.00
52105;BME280;38103;42.776;23.112;2023-01-28T04:25:00;93406.69;;;-2.57;100.00
52105;BME280;38103;42.776;23.112;2023-01-28T04:27:25;93403.63;;;-2.61;100.00
52105;BME280;38103;42.776;23.112;2023-01-28T04:29:51;93405.56;;;-2.63;100.00
52105;BME280;38103;42.776;23.112;2023-01-28T04:32:16;93405.88;;;-2.58;100.00
52105;BME280;38103;42.776;23.112;2023-01-28T04:34:41;93402.00;;;-2.62;100.00
52105;BME280;38103;42.776;23.112;2023-01-28T04:37:07;93417.34;;;-2.52;100.00
52105;BME280;38103;42.776;23.112;2023-01-28T04:39:33;93416.53;;;-2.52;100.00
52105;BME280;38103;42.776;23.112;2023-01-28T04:41:58;93423.63;;;-2.46;100.00
52105;BME280;38103;42.776;23.112;2023-01-28T04:44:24;93417.50;;;-2.45;100.00
52105;BME280;38103;42.776;23.112;2023-01-28T04:46:49;93418.16;;;-2.51;100.00
52105;BME280;38103;42.776;23.112;2023-01-28T04:49:14;93428.81;;;-2.46;100.00
52105;BME280;38103;42.776;23.112;2023-01-28T04:51:40;93424.59;;;-2.39;100.00
52105;BME280;38103;42.776;23.112;2023-01-28T04:54:06;93433.97;;;-2.38;100.00
52105;BME280;38103;42.776;23.112;2023-01-28T04:56:31;93432.03;;;-2.36;100.00
52105;BME280;38103;42.776;23.112;2023-01-28T04:58:56;93432.97;;;-2.28;100.00
52105;BME280;38103;42.776;23.112;2023-01-28T05:01:22;93437.81;;;-2.25;100.00
52105;BME280;38103;42.776;23.112;2023-01-28T05:03:48;93433.28;;;-2.31;100.00
52105;BME280;38103;42.776;23.112;2023-01-28T05:06:14;93434.91;;;-2.30;100.00
52105;BME280;38103;42.776;23.112;2023-01-28T05:08:39;93433.28;;;-2.31;100.00
52105;BME280;38103;42.776;23.112;2023-01-28T05:11:04;93440.28;;;-2.40;100.00
52105;BME280;38103;42.776;23.112;2023-01-28T05:13:30;93435.94;;;-2.40;100.00
52105;BME280;38103;42.776;23.112;2023-01-28T05:15:55;93439.81;;;-2.44;100.00
52105;BME280;38103;42.776;23.112;2023-01-28T05:18:20;93449.19;;;-2.34;100.00
52105;BME280;38103;42.776;23.112;2023-01-28T05:20:46;93447.72;;;-2.37;100.00
52105;BME280;38103;42.776;23.112;2023-01-28T05:23:11;93452.59;;;-2.42;100.00
52105;BME280;38103;42.776;23.112;2023-01-28T05:25:37;93446.63;;;-2.43;100.00
52105;BME280;38103;42.776;23.112;2023-01-28T05:28:02;93449.50;;;-2.38;100.00
52105;BME280;38103;42.776;23.112;2023-01-28T05:30:27;93452.91;;;-2.37;100.00
52105;BME280;38103;42.776;23.112;2023-01-28T05:32:54;93451.16;;;-2.53;100.00
52105;BME280;38103;42.776;23.112;2023-01-28T05:35:20;93441.19;;;-2.73;100.00
52105;BME280;38103;42.776;23.112;2023-01-28T05:37:46;93464.81;;;-2.76;100.00
52105;BME280;38103;42.776;23.112;2023-01-28T05:40:11;93469.63;;;-2.65;100.00
52105;BME280;38103;42.776;23.112;2023-01-28T05:42:37;93470.94;;;-2.61;100.00
52105;BME280;38103;42.776;23.112;2023-01-28T05:45:02;93465.25;;;-2.64;100.00
52105;BME280;38103;42.776;23.112;2023-01-28T05:47:28;93470.44;;;-2.56;100.00
52105;BME280;38103;42.776;23.112;2023-01-28T05:49:53;93476.88;;;-2.60;100.00
52105;BME280;38103;42.776;23.112;2023-01-28T05:52:19;93479.47;;;-2.52;100.00
52105;BME280;38103;42.776;23.112;2023-01-28T05:54:44;93480.13;;;-2.58;100.00
52105;BME280;38103;42.776;23.112;2023-01-28T05:57:09;93483.81;;;-2.52;100.00
52105;BME280;38103;42.776;23.112;2023-01-28T05:59:35;93459.28;;;-2.65;100.00
52105;BME280;38103;42.776;23.112;2023-01-28T06:02:00;93470.94;;;-2.61;100.00
52105;BME280;38103;42.776;23.112;2023-01-28T06:04:26;93481.09;;;-2.51;100.00
52105;BME280;38103;42.776;23.112;2023-01-28T06:06:51;93481.22;;;-2.44;100.00
52105;BME280;38103;42.776;23.112;2023-01-28T06:09:16;93491.59;;;-2.44;100.00
52105;BME280;38103;42.776;23.112;2023-01-28T06:11:42;93497.09;;;-2.47;100.00
52105;BME280;38103;42.776;23.112;2023-01-28T06:14:08;93497.56;;;-2.43;100.00
52105;BME280;38103;42.776;23.112;2023-01-28T06:16:33;93505.66;;;-2.55;100.00
52105;BME280;38103;42.776;23.112;2023-01-28T06:18:59;93508.44;;;-2.56;100.00
52105;BME280;38103;42.776;23.112;2023-01-28T06:21:25;93510.38;;;-2.59;100.00
52105;BME280;38103;42.776;23.112;2023-01-28T06:23:50;93521.88;;;-2.61;100.00
52105;BME280;38103;42.776;23.112;2023-01-28T06:26:15;93484.19;;;-2.81;100.00
52105;BME280;38103;42.776;23.112;2023-01-28T06:28:41;93515.56;;;-2.59;100.00
52105;BME280;38103;42.776;23.112;2023-01-28T06:31:06;93519.09;;;-2.60;100.00
52105;BME280;38103;42.776;23.112;2023-01-28T06:33:32;93521.69;;;-2.51;100.00
52105;BME280;38103;42.776;23.112;2023-01-28T06:35:57;93523.66;;;-2.53;100.00
52105;BME280;38103;42.776;23.112;2023-01-28T06:38:23;93523.97;;;-2.56;100.00
52105;BME280;38103;42.776;23.112;2023-01-28T06:40:52;93534.00;;;-2.53;100.00
52105;BME280;38103;42.776;23.112;2023-01-28T06:43:20;93541.44;;;-2.59;100.00
52105;BME280;38103;42.776;23.112;2023-01-28T06:45:45;93535.13;;;-2.56;100.00
52105;BME280;38103;42.776;23.112;2023-01-28T06:48:10;93545.63;;;-2.58;100.00
52105;BME280;38103;42.776;23.112;2023-01-28T06:50:36;93550.81;;;-2.58;100.00
52105;BME280;38103;42.776;23.112;2023-01-28T06:53:02;93554.84;;;-2.55;100.00
52105;BME280;38103;42.776;23.112;2023-01-28T06:55:27;93551.94;;;-2.52;100.00
52105;BME280;38103;42.776;23.112;2023-01-28T06:57:52;93560.34;;;-2.50;100.00
52105;BME280;38103;42.776;23.112;2023-01-28T07:00:18;93559.88;;;-2.53;100.00
52105;BME280;38103;42.776;23.112;2023-01-28T07:02:44;93562.63;;;-2.55;100.00
52105;BME280;38103;42.776;23.112;2023-01-28T07:05:09;93559.56;;;-2.50;100.00
52105;BME280;38103;42.776;23.112;2023-01-28T07:07:35;93568.28;;;-2.51;100.00
52105;BME280;38103;42.776;23.112;2023-01-28T07:10:01;93572.16;;;-2.47;100.00
52105;BME280;38103;42.776;23.112;2023-01-28T07:12:26;93566.50;;;-2.42;100.00
52105;BME280;38103;42.776;23.112;2023-01-28T07:14:51;93569.25;;;-2.44;100.00
52105;BME280;38103;42.776;23.112;2023-01-28T07:17:17;93572.16;;;-2.39;100.00
52105;BME280;38103;42.776;23.112;2023-01-28T07:19:42;93575.38;;;-2.37;100.00
52105;BME280;38103;42.776;23.112;2023-01-28T07:22:07;93577.66;;;-2.25;100.00
52105;BME280;38103;42.776;23.112;2023-01-28T07:24:33;93578.47;;;-2.25;100.00
52105;BME280;38103;42.776;23.112;2023-01-28T07:26:59;93579.91;;;-2.22;100.00
52105;BME280;38103;42.776;23.112;2023-01-28T07:29:24;93590.59;;;-2.17;100.00
52105;BME280;38103;42.776;23.112;2023-01-28T07:31:49;93585.72;;;-2.20;100.00
52105;BME280;38103;42.776;23.112;2023-01-28T07:34:15;93594.13;;;-2.18;100.00
52105;BME280;38103;42.776;23.112;2023-01-28T07:36:41;93589.59;;;-2.07;100.00
52105;BME280;38103;42.776;23.112;2023-01-28T07:39:06;93593.44;;;-1.95;100.00
52105;BME280;38103;42.776;23.112;2023-01-28T07:41:32;93586.31;;;-1.93;100.00
52105;BME280;38103;42.776;23.112;2023-01-28T07:43:57;93592.44;;;-1.85;100.00
52105;BME280;38103;42.776;23.112;2023-01-28T07:46:23;93554.66;;;-2.11;100.00
52105;BME280;38103;42.776;23.112;2023-01-28T07:48:48;93600.69;;;-1.73;100.00
52105;BME280;38103;42.776;23.112;2023-01-28T07:51:13;93596.44;;;-1.66;100.00
52105;BME280;38103;42.776;23.112;2023-01-28T07:53:39;93595.13;;;-1.62;100.00
52105;BME280;38103;42.776;23.112;2023-01-28T07:56:04;93609.69;;;-1.52;100.00
52105;BME280;38103;42.776;23.112;2023-01-28T07:58:31;93566.88;;;-1.88;100.00
52105;BME280;38103;42.776;23.112;2023-01-28T08:00:59;93618.00;;;-1.65;100.00
52105;BME280;38103;42.776;23.112;2023-01-28T08:03:26;93610.53;;;-1.60;100.00
52105;BME280;38103;42.776;23.112;2023-01-28T08:05:54;93613.44;;;-1.55;100.00
52105;BME280;38103;42.776;23.112;2023-01-28T08:08:20;93619.22;;;-1.44;100.00
52105;BME280;38103;42.776;23.112;2023-01-28T08:10:46;93617.91;;;-1.49;100.00
52105;BME280;38103;42.776;23.112;2023-01-28T08:13:13;93621.47;;;-1.41;100.00
52105;BME280;38103;42.776;23.112;2023-01-28T08:15:39;93619.84;;;-1.42;100.00
52105;BME280;38103;42.776;23.112;2023-01-28T08:18:06;93633.06;;;-1.29;100.00
52105;BME280;38103;42.776;23.112;2023-01-28T08:20:32;93614.75;;;-1.27;100.00
52105;BME280;38103;42.776;23.112;2023-01-28T08:23:24;93634.69;;;-1.28;100.00
52105;BME280;38103;42.776;23.112;2023-01-28T08:25:53;93640.81;;;-1.20;100.00
52105;BME280;38103;42.776;23.112;2023-01-28T08:28:20;93644.88;;;-1.18;100.00
52105;BME280;38103;42.776;23.112;2023-01-28T08:30:45;93643.38;;;-1.12;100.00
52105;BME280;38103;42.776;23.112;2023-01-28T08:33:12;93634.63;;;-1.11;100.00
52105;BME280;38103;42.776;23.112;2023-01-28T08:35:38;93648.84;;;-0.98;100.00
52105;BME280;38103;42.776;23.112;2023-01-28T08:38:04;93610.84;;;-1.23;100.00
52105;BME280;38103;42.776;23.112;2023-01-28T08:40:31;93656.31;;;-1.04;100.00
52105;BME280;38103;42.776;23.112;2023-01-28T08:42:57;93652.09;;;-1.05;100.00
52105;BME280;38103;42.776;23.112;2023-01-28T08:45:23;93651.13;;;-1.04;100.00
52105;BME280;38103;42.776;23.112;2023-01-28T08:47:53;93658.22;;;-0.97;100.00
52105;BME280;38103;42.776;23.112;2023-01-28T08:50:20;93649.81;;;-0.99;100.00
52105;BME280;38103;42.776;23.112;2023-01-28T08:52:47;93627.50;;;-1.09;100.00
52105;BME280;38103;42.776;23.112;2023-01-28T08:55:14;93655.59;;;-0.89;100.00
52105;BME280;38103;42.776;23.112;2023-01-28T08:57:39;93651.03;;;-0.87;100.00
52105;BME280;38103;42.776;23.112;2023-01-28T09:00:05;93651.97;;;-0.80;100.00
52105;BME280;38103;42.776;23.112;2023-01-28T09:02:31;93621.69;;;-1.19;100.00
52105;BME280;38103;42.776;23.112;2023-01-28T09:04:56;93651.72;;;-0.93;100.00
52105;BME280;38103;42.776;23.112;2023-01-28T09:07:22;93654.38;;;-1.02;100.00
52105;BME280;38103;42.776;23.112;2023-01-28T09:09:47;93657.81;;;-1.09;100.00
52105;BME280;38103;42.776;23.112;2023-01-28T09:12:13;93657.69;;;-1.16;100.00
52105;BME280;38103;42.776;23.112;2023-01-28T09:14:39;93653.75;;;-1.12;100.00
52105;BME280;38103;42.776;23.112;2023-01-28T09:17:04;93659.63;;;-1.18;100.00
52105;BME280;38103;42.776;23.112;2023-01-28T09:19:29;93663.66;;;-1.16;100.00
52105;BME280;38103;42.776;23.112;2023-01-28T09:21:55;93656.38;;;-1.20;100.00
52105;BME280;38103;42.776;23.112;2023-01-28T09:24:20;93663.88;;;-1.26;100.00
52105;BME280;38103;42.776;23.112;2023-01-28T09:26:49;93638.00;;;-1.42;100.00
52105;BME280;38103;42.776;23.112;2023-01-28T09:29:15;93657.88;;;-1.26;100.00
52105;BME280;38103;42.776;23.112;2023-01-28T09:31:40;93655.25;;;-1.18;100.00
52105;BME280;38103;42.776;23.112;2023-01-28T09:34:07;93650.88;;;-1.17;100.00
52105;BME280;38103;42.776;23.112;2023-01-28T09:36:32;93646.66;;;-1.18;100.00
52105;BME280;38103;42.776;23.112;2023-01-28T09:38:57;93648.09;;;-1.16;100.00
52105;BME280;38103;42.776;23.112;2023-01-28T09:41:29;93650.88;;;-1.17;100.00
52105;BME280;38103;42.776;23.112;2023-01-28T09:46:45;93652.09;;;-1.05;100.00
52105;BME280;38103;42.776;23.112;2023-01-28T09:49:18;93650.00;;;-1.01;100.00
52105;BME280;38103;42.776;23.112;2023-01-28T09:51:51;93651.25;;;-0.97;100.00
52105;BME280;38103;42.776;23.112;2023-01-28T09:54:26;93655.47;;;-0.96;100.00
52105;BME280;38103;42.776;23.112;2023-01-28T09:57:00;93651.38;;;-0.90;100.00
52105;BME280;38103;42.776;23.112;2023-01-28T09:59:32;93651.19;;;-0.80;100.00
52105;BME280;38103;42.776;23.112;2023-01-28T10:08:05;93649.31;;;-0.71;100.00
52105;BME280;38103;42.776;23.112;2023-01-28T10:10:43;93650.03;;;-0.77;100.00
52105;BME280;38103;42.776;23.112;2023-01-28T10:13:45;93648.38;;;-1.02;100.00
52105;BME280;38103;42.776;23.112;2023-01-28T10:18:54;93646.44;;;-0.76;100.00
52105;BME280;38103;42.776;23.112;2023-01-28T10:21:26;93644.53;;;-0.83;100.00
52105;BME280;38103;42.776;23.112;2023-01-28T10:26:38;93647.53;;;-0.71;100.00
52105;BME280;38103;42.776;23.112;2023-01-28T10:29:19;93645.06;;;-0.64;100.00
52105;BME280;38103;42.776;23.112;2023-01-28T10:32:03;93646.91;;;-0.73;100.00
52105;BME280;38103;42.776;23.112;2023-01-28T10:34:29;93646.56;;;-0.70;100.00
52105;BME280;38103;42.776;23.112;2023-01-28T10:36:56;93632.25;;;-0.89;100.00
52105;BME280;38103;42.776;23.112;2023-01-28T10:39:23;93649.06;;;-0.85;100.00
52105;BME280;38103;42.776;23.112;2023-01-28T10:41:49;93635.13;;;-0.84;100.00
52105;BME280;38103;42.776;23.112;2023-01-28T10:44:33;93644.13;;;-0.71;100.00
52105;BME280;38103;42.776;23.112;2023-01-28T10:47:05;93646.34;;;-0.60;100.00
52105;BME280;38103;42.776;23.112;2023-01-28T10:49:40;93646.78;;;-0.56;100.00
52105;BME280;38103;42.776;23.112;2023-01-28T10:52:11;93646.22;;;-0.43;100.00
52105;BME280;38103;42.776;23.112;2023-01-28T10:54:36;93639.28;;;-0.27;100.00
52105;BME280;38103;42.776;23.112;2023-01-28T10:57:04;93641.09;;;-0.13;100.00
52105;BME280;38103;42.776;23.112;2023-01-28T10:59:33;93642.31;;;0.00;100.00
52105;BME280;38103;42.776;23.112;2023-01-28T11:02:05;93644.84;;;0.24;100.00
52105;BME280;38103;42.776;23.112;2023-01-28T11:04:44;93636.88;;;0.25;100.00
52105;BME280;38103;42.776;23.112;2023-01-28T11:07:20;93638.66;;;0.40;100.00
52105;BME280;38103;42.776;23.112;2023-01-28T11:09:48;93640.28;;;0.41;100.00
52105;BME280;38103;42.776;23.112;2023-01-28T11:12:25;93636.69;;;0.42;100.00
52105;BME280;38103;42.776;23.112;2023-01-28T11:14:57;93642.44;;;0.37;100.00
52105;BME280;38103;42.776;23.112;2023-01-28T11:17:25;93635.88;;;0.41;100.00
52105;BME280;38103;42.776;23.112;2023-01-28T11:19:53;93634.81;;;0.51;100.00
52105;BME280;38103;42.776;23.112;2023-01-28T11:22:38;93628.81;;;0.50;100.00
52105;BME280;38103;42.776;23.112;2023-01-28T11:27:38;93639.28;;;0.27;100.00
52105;BME280;38103;42.776;23.112;2023-01-28T11:30:04;93633.81;;;0.06;100.00
52105;BME280;38103;42.776;23.112;2023-01-28T11:32:32;93634.25;;;0.10;100.00
52105;BME280;38103;42.776;23.112;2023-01-28T11:34:58;93634.16;;;0.03;100.00
52105;BME280;38103;42.776;23.112;2023-01-28T11:37:26;93632.81;;;0.07;100.00
52105;BME280;38103;42.776;23.112;2023-01-28T11:40:02;93631.56;;;0.18;100.00
52105;BME280;38103;42.776;23.112;2023-01-28T11:42:29;93634.56;;;0.30;100.00
52105;BME280;38103;42.776;23.112;2023-01-28T11:44:54;93623.59;;;0.20;100.00
52105;BME280;38103;42.776;23.112;2023-01-28T12:20:33;93633.66;;;-0.54;100.00
52105;BME280;38103;42.776;23.112;2023-01-28T12:41:41;93645.06;;;-0.64;100.00
52105;BME280;38103;42.776;23.112;2023-01-28T12:44:21;93621.78;;;-0.72;100.00
52105;BME280;38103;42.776;23.112;2023-01-28T12:47:00;93639.88;;;-0.64;100.00
52105;BME280;38103;42.776;23.112;2023-01-28T12:49:34;93646.44;;;-0.76;100.00
52105;BME280;38103;42.776;23.112;2023-01-28T12:52:21;93645.13;;;-0.72;100.00
52105;BME280;38103;42.776;23.112;2023-01-28T12:55:12;93648.03;;;-0.67;100.00
52105;BME280;38103;42.776;23.112;2023-01-28T12:57:40;93647.25;;;-0.76;100.00
52105;BME280;38103;42.776;23.112;2023-01-28T13:02:51;93650.69;;;-0.84;100.00
52105;BME280;38103;42.776;23.112;2023-01-28T13:05:25;93646.53;;;-0.93;100.00
52105;BME280;38103;42.776;23.112;2023-01-28T13:08:08;93653.81;;;-0.88;100.00
52105;BME280;38103;42.776;23.112;2023-01-28T13:10:42;93667.31;;;-0.93;100.00
52105;BME280;38103;42.776;23.112;2023-01-28T13:13:18;93667.31;;;-0.93;100.00
52105;BME280;38103;42.776;23.112;2023-01-28T13:15:47;93663.72;;;-0.92;100.00
52105;BME280;38103;42.776;23.112;2023-01-28T13:20:57;93672.53;;;-1.02;100.00
52105;BME280;38103;42.776;23.112;2023-01-28T13:28:47;93679.03;;;-1.06;100.00
52105;BME280;38103;42.776;23.112;2023-01-28T13:31:15;93674.19;;;-1.09;100.00
52105;BME280;38103;42.776;23.112;2023-01-28T13:33:48;93681.34;;;-1.11;100.00
52105;BME280;38103;42.776;23.112;2023-01-28T13:39:22;93698.94;;;-0.98;100.00
52105;BME280;38103;42.776;23.112;2023-01-28T13:41:51;93691.63;;;-0.94;100.00
52105;BME280;38103;42.776;23.112;2023-01-28T13:44:24;93701.69;;;-0.91;100.00
52105;BME280;38103;42.776;23.112;2023-01-28T13:46:55;93692.13;;;-0.91;100.00
52105;BME280;38103;42.776;23.112;2023-01-28T13:49:29;93647.66;;;-1.28;100.00
52105;BME280;38103;42.776;23.112;2023-01-28T13:52:07;93667.09;;;-1.24;100.00
52105;BME280;38103;42.776;23.112;2023-01-28T13:54:41;93700.75;;;-0.98;100.00
52105;BME280;38103;42.776;23.112;2023-01-28T13:59:56;93706.25;;;-1.02;100.00
52105;BME280;38103;42.776;23.112;2023-01-28T14:02:43;93715.31;;;-0.97;100.00
52105;BME280;38103;42.776;23.112;2023-01-28T14:19:35;93725.38;;;-1.03;100.00
52105;BME280;38103;42.776;23.112;2023-01-28T14:22:18;93734.50;;;-1.07;100.00
52105;BME280;38103;42.776;23.112;2023-01-28T14:24:45;93740.34;;;-1.13;100.00
52105;BME280;38103;42.776;23.112;2023-01-28T14:27:26;93731.59;;;-1.12;100.00
52105;BME280;38103;42.776;23.112;2023-01-28T14:32:50;93741.16;;;-1.13;100.00
52105;BME280;38103;42.776;23.112;2023-01-28T14:37:51;93738.72;;;-1.06;100.00
52105;BME280;38103;42.776;23.112;2023-01-28T14:40:17;93741.31;;;-1.06;100.00
52105;BME280;38103;42.776;23.112;2023-01-28T14:42:49;93748.09;;;-1.05;100.00
52105;BME280;38103;42.776;23.112;2023-01-28T14:48:24;93752.34;;;-1.12;100.00
52105;BME280;38103;42.776;23.112;2023-01-28T14:58:53;93759.50;;;-1.22;100.00
52105;BME280;38103;42.776;23.112;2023-01-28T15:01:24;93762.09;;;-1.22;100.00
52105;BME280;38103;42.776;23.112;2023-01-28T15:03:50;93758.25;;;-1.27;100.00
52105;BME280;38103;42.776;23.112;2023-01-28T15:06:21;93768.56;;;-1.18;100.00
52105;BME280;38103;42.776;23.112;2023-01-28T15:08:48;93770.50;;;-1.12;100.00
52105;BME280;38103;42.776;23.112;2023-01-28T15:11:18;93767.91;;;-1.04;100.00
52105;BME280;38103;42.776;23.112;2023-01-28T15:13:50;93768.22;;;-0.98;100.00
52105;BME280;38103;42.776;23.112;2023-01-28T15:16:20;93770.50;;;-1.04;100.00